PGUA/UAM METAR and TAF weather

Enter ICAO airport designator
Station Type Date Time Source
PGUA METAR 2020/10/20 16:56 UTC NOAA

PGUA 201656Z 13011KT 10SM SCT015 27/24 A2981 RMK AO2A SLP085 T02650237 $


Station Type Date Time Source
PGUA Decoded METAR 2020/10/20 16:56 UTC NOAA

Andersen, Mariana Is, Andersen Air Force Base, GU, United States (PGUA) 13-35N 144-56E 187M
Oct 20, 2020 - 12:56 PM EDT / 2020.10.20 1656 UTC
Wind: from the SE (130 degrees) at 13 MPH (11 KT):0
Visibility: 10 mile(s):0
Sky conditions: partly cloudy
Temperature: 79.7 F (26.5 C)
Dew Point: 74.7 F (23.7 C)
Relative Humidity: 84%
Pressure (altimeter): 29.81 in. Hg (1009 hPa)
ob: PGUA 201656Z 13011KT 10SM SCT015 27/24 A2981 RMK AO2A SLP085 T02650237
cycle: 17

Station Type Date Time Source
PGUA TAF 2020/10/20 13:12 UTC NOAA

TAF TAF
AMD PGUA 201300Z 2013/2116 15009KT 9999 SCT016 BKN040 QNH2977INS
TEMPO 2013/2015 13020G30KT 3200 -SHRA VCTS SCT007 BKN010CB
TEMPO 2015/2018 12014G22KT 6000 -SHRA SCT010 BKN016
BECMG 2018/2019 09009KT 9999 SCT016 QNH2975INS TX30/2101Z TN25/2016Z

Example: see airport list